Time;durP1;ratioP1;P1;durP2;ratioP2;P2;SDS_P1;SDS_P2;PMS_P1;PMS_P2;Temp;Humidity;BMP_temperature;BMP_pressure;BME280_temperature;BME280_humidity;BME280_pressure;Samples;Min_cycle;Max_cycle;Signal;HPM_P1;HPM_P2
2024/04/05 00:00:58;;;;;;;5.27;2.60;;;10.60;99.90;;;;;;5016957;28;20556;-67
2024/04/05 00:03:24;;;;;;;9.07;3.33;;;10.60;99.90;;;;;;5007893;28;20484;-67
2024/04/05 00:05:51;;;;;;;7.10;2.60;;;10.60;99.90;;;;;;5011765;28;20519;-67
2024/04/05 00:08:17;;;;;;;6.47;2.90;;;10.60;99.90;;;;;;5013412;28;20482;-67
2024/04/05 00:10:45;;;;;;;5.50;3.00;;;10.60;99.90;;;;;;5013903;28;20496;-66
2024/04/05 00:13:11;;;;;;;5.87;2.43;;;10.60;99.90;;;;;;5015823;28;20529;-67
2024/04/05 00:15:42;;;;;;;5.50;3.00;;;10.60;99.90;;;;;;5014474;28;20467;-67
2024/04/05 00:18:08;;;;;;;9.23;3.20;;;10.60;99.90;;;;;;5014612;28;20476;-67
2024/04/05 00:20:36;;;;;;;10.23;3.13;;;10.60;99.90;;;;;;5011151;28;20510;-67
2024/04/05 00:23:02;;;;;;;7.87;3.17;;;10.60;99.90;;;;;;5009654;28;20526;-67
2024/04/05 00:25:29;;;;;;;7.73;3.77;;;10.60;99.90;;;;;;5017578;28;20499;-67
2024/04/05 00:27:55;;;;;;;7.33;3.70;;;10.60;99.90;;;;;;5012305;28;20468;-67
2024/04/05 00:30:22;;;;;;;6.90;3.70;;;10.60;99.90;;;;;;5014331;28;20557;-67
2024/04/05 00:32:50;;;;;;;6.90;3.10;;;10.60;99.90;;;;;;5013220;28;20475;-67
2024/04/05 00:35:17;;;;;;;5.30;3.50;;;10.60;99.90;;;;;;5013155;28;20475;-67
2024/04/05 00:37:43;;;;;;;7.60;3.70;;;10.60;99.90;;;;;;5011558;28;21795;-67
2024/04/05 00:40:11;;;;;;;7.77;3.70;;;10.60;99.90;;;;;;5018525;28;20480;-67
2024/04/05 00:42:37;;;;;;;7.57;3.57;;;10.60;99.90;;;;;;5014049;28;20471;-67
2024/04/05 00:45:05;;;;;;;5.80;3.63;;;10.60;99.90;;;;;;5014170;28;20578;-67
2024/04/05 00:47:32;;;;;;;8.30;3.80;;;10.60;99.90;;;;;;5012086;28;20480;-67
2024/04/05 00:50:02;;;;;;;7.60;3.40;;;10.60;99.90;;;;;;5014414;28;20479;-67
2024/04/05 00:52:28;;;;;;;6.73;3.60;;;10.60;99.90;;;;;;5015316;28;20468;-67
2024/04/05 00:54:56;;;;;;;6.90;3.83;;;10.70;99.90;;;;;;5011586;28;20488;-67
2024/04/05 00:57:23;;;;;;;9.00;3.30;;;10.70;99.90;;;;;;5017205;28;20467;-67
2024/04/05 00:59:50;;;;;;;8.87;3.70;;;10.70;99.90;;;;;;5010606;28;20844;-67
2024/04/05 01:02:17;;;;;;;6.97;4.10;;;10.70;99.90;;;;;;5002846;28;21131;-67
2024/04/05 01:04:43;;;;;;;9.77;3.60;;;10.70;99.90;;;;;;5006682;28;20484;-67
2024/04/05 01:07:13;;;;;;;11.00;4.60;;;10.70;99.90;;;;;;5017271;28;20479;-67
2024/04/05 01:09:39;;;;;;;6.93;3.43;;;10.70;99.90;;;;;;5011734;28;20463;-67
2024/04/05 01:12:06;;;;;;;8.50;3.33;;;10.70;99.90;;;;;;5010170;28;20538;-67
2024/04/05 01:14:33;;;;;;;10.30;3.80;;;10.70;99.90;;;;;;5012405;28;20483;-67
2024/04/05 01:17:00;;;;;;;9.37;3.40;;;10.70;99.90;;;;;;5013146;28;20471;-67
2024/04/05 01:19:28;;;;;;;10.40;4.33;;;10.70;99.90;;;;;;5010602;28;20949;-67
2024/04/05 01:21:56;;;;;;;10.37;3.50;;;10.70;99.90;;;;;;5006217;28;20922;-67
2024/04/05 01:24:24;;;;;;;9.20;3.60;;;10.70;99.90;;;;;;5011925;28;20546;-67
2024/04/05 01:26:52;;;;;;;7.67;3.97;;;10.70;99.90;;;;;;5011386;28;20992;-67
2024/04/05 01:29:18;;;;;;;8.23;3.30;;;10.80;99.90;;;;;;5016207;28;20558;-67
2024/04/05 01:31:45;;;;;;;8.20;3.97;;;10.70;99.90;;;;;;5005538;28;21067;-67
2024/04/05 01:34:11;;;;;;;12.33;4.17;;;10.70;99.90;;;;;;5009069;28;20856;-67
2024/04/05 01:36:38;;;;;;;7.57;3.53;;;10.80;99.90;;;;;;5007990;28;20983;-67
2024/04/05 01:39:04;;;;;;;8.90;3.40;;;10.80;99.90;;;;;;5009138;28;20463;-67
2024/04/05 01:41:36;;;;;;;7.47;3.20;;;10.80;99.90;;;;;;5011379;28;20506;-67
2024/04/05 01:44:03;;;;;;;10.93;4.37;;;10.80;99.90;;;;;;5015673;28;20502;-67
2024/04/05 01:46:30;;;;;;;14.00;4.17;;;10.80;99.90;;;;;;5010032;28;20492;-67
2024/04/05 01:48:56;;;;;;;7.97;3.40;;;10.80;99.90;;;;;;5011513;28;21076;-67
2024/04/05 01:51:23;;;;;;;9.70;4.00;;;10.80;99.90;;;;;;5004702;28;20490;-67
2024/04/05 01:53:50;;;;;;;8.37;3.40;;;10.80;99.90;;;;;;5006083;28;20553;-67
2024/04/05 01:56:17;;;;;;;11.03;3.87;;;10.80;99.90;;;;;;5012172;28;20451;-67
2024/04/05 01:58:44;;;;;;;12.30;3.70;;;10.80;99.90;;;;;;5011754;28;20467;-67
2024/04/05 02:01:11;;;;;;;5.83;2.93;;;10.80;99.90;;;;;;5008616;28;20485;-67
2024/04/05 02:03:37;;;;;;;13.20;4.00;;;10.80;99.90;;;;;;5008141;28;20495;-67
2024/04/05 02:06:12;;;;;;;10.80;3.70;;;10.80;99.90;;;;;;5024130;28;20498;-67
2024/04/05 02:08:38;;;;;;;13.90;3.60;;;10.80;99.90;;;;;;5010026;28;20581;-67
2024/04/05 02:11:06;;;;;;;12.20;3.80;;;10.80;99.90;;;;;;5001344;28;22127;-67
2024/04/05 02:13:32;;;;;;;11.43;4.50;;;10.80;99.90;;;;;;5007058;28;21008;-67
2024/04/05 02:16:00;;;;;;;12.10;4.17;;;10.80;99.90;;;;;;5012453;28;20474;-67
2024/04/05 02:18:26;;;;;;;10.07;3.60;;;10.80;99.90;;;;;;5019131;28;20463;-67
2024/04/05 02:20:54;;;;;;;10.80;4.20;;;10.90;99.90;;;;;;5010183;28;20499;-67
2024/04/05 02:23:20;;;;;;;12.30;4.20;;;10.80;99.90;;;;;;5016195;28;20521;-67
2024/04/05 02:25:48;;;;;;;15.17;4.53;;;10.80;99.90;;;;;;5013654;28;20500;-67
2024/04/05 02:28:14;;;;;;;10.50;3.63;;;10.80;99.90;;;;;;5016972;28;20478;-67
2024/04/05 02:30:41;;;;;;;15.47;4.23;;;10.80;99.90;;;;;;5018061;28;20487;-67
2024/04/05 02:33:08;;;;;;;8.47;3.90;;;10.80;99.90;;;;;;5019280;28;20968;-67
2024/04/05 02:35:35;;;;;;;11.30;3.90;;;10.80;99.90;;;;;;5016216;28;20525;-67
2024/04/05 02:38:01;;;;;;;20.73;5.67;;;10.80;99.90;;;;;;5013621;28;21612;-67
2024/04/05 02:40:28;;;;;;;10.70;4.30;;;10.80;99.90;;;;;;5003678;28;20637;-66
2024/04/05 02:42:54;;;;;;;9.80;3.60;;;10.80;99.90;;;;;;5011275;28;20484;-67
2024/04/05 02:45:21;;;;;;;11.63;3.80;;;10.90;99.90;;;;;;5018141;28;20483;-67
2024/04/05 02:47:48;;;;;;;12.67;4.40;;;10.90;99.90;;;;;;5015670;28;20475;-67
2024/04/05 02:50:16;;;;;;;12.83;4.17;;;10.90;99.90;;;;;;5010362;28;20560;-67
2024/04/05 02:52:42;;;;;;;15.77;4.67;;;10.90;99.90;;;;;;5011449;28;20541;-66
2024/04/05 02:55:09;;;;;;;12.23;4.03;;;10.90;99.90;;;;;;5015754;28;20487;-67
2024/04/05 02:57:36;;;;;;;13.30;3.63;;;10.90;99.90;;;;;;5016856;28;20557;-67
2024/04/05 03:00:05;;;;;;;14.63;4.20;;;10.90;99.90;;;;;;5015329;28;21011;-67
2024/04/05 03:02:31;;;;;;;16.67;5.97;;;11.00;99.90;;;;;;5013286;28;23019;-67
2024/04/05 03:04:58;;;;;;;12.30;4.30;;;10.90;99.90;;;;;;5011582;28;20488;-67
2024/04/05 03:07:25;;;;;;;16.20;4.67;;;11.00;99.90;;;;;;5011257;28;20962;-67
2024/04/05 03:09:52;;;;;;;13.27;4.97;;;11.00;99.90;;;;;;5011000;28;20483;-67
2024/04/05 03:12:18;;;;;;;12.20;4.43;;;11.00;99.90;;;;;;5017236;28;20480;-67
2024/04/05 03:14:45;;;;;;;16.30;4.47;;;11.00;99.90;;;;;;5015818;28;20491;-67
2024/04/05 03:17:12;;;;;;;10.57;4.67;;;11.00;99.90;;;;;;5014298;28;20482;-67
2024/04/05 03:19:40;;;;;;;16.47;4.87;;;11.00;99.90;;;;;;5012532;28;20475;-67
2024/04/05 03:22:08;;;;;;;12.37;5.50;;;11.00;99.90;;;;;;5012111;28;20489;-67
2024/04/05 03:24:36;;;;;;;13.43;5.53;;;11.00;99.90;;;;;;5011512;28;20487;-66
2024/04/05 03:27:03;;;;;;;14.57;4.13;;;11.00;99.90;;;;;;5014205;28;20537;-67
2024/04/05 03:29:30;;;;;;;14.20;4.97;;;11.00;99.90;;;;;;5016378;28;25219;-67
2024/04/05 03:31:56;;;;;;;16.97;5.53;;;11.00;99.90;;;;;;5018780;28;20459;-67
2024/04/05 03:34:23;;;;;;;12.83;4.20;;;11.00;99.90;;;;;;5015915;28;20537;-67
2024/04/05 03:36:49;;;;;;;14.23;4.53;;;11.00;99.90;;;;;;5013133;28;20459;-67
2024/04/05 03:39:17;;;;;;;12.37;5.70;;;11.00;99.90;;;;;;5017239;28;20467;-67
2024/04/05 03:41:45;;;;;;;12.70;4.83;;;11.00;99.90;;;;;;5016201;28;20495;-67
2024/04/05 03:44:11;;;;;;;17.70;5.40;;;11.00;99.90;;;;;;5016022;28;21074;-67
2024/04/05 03:46:39;;;;;;;13.03;5.33;;;11.00;99.90;;;;;;5019618;28;20494;-67
2024/04/05 03:49:07;;;;;;;18.50;4.70;;;11.00;99.90;;;;;;5009604;28;20467;-67
2024/04/05 03:51:34;;;;;;;15.63;4.73;;;11.00;99.90;;;;;;5015506;28;21095;-67
2024/04/05 03:54:00;;;;;;;14.17;5.47;;;11.00;99.90;;;;;;5013173;28;20483;-67
2024/04/05 03:56:27;;;;;;;16.50;6.50;;;11.00;99.90;;;;;;5019855;28;20471;-67
2024/04/05 03:58:55;;;;;;;13.03;4.17;;;11.00;99.90;;;;;;5009401;28;20561;-67
2024/04/05 04:01:21;;;;;;;13.60;4.40;;;10.90;99.90;;;;;;5009943;28;21835;-67
2024/04/05 04:03:48;;;;;;;11.57;4.60;;;10.90;99.90;;;;;;5007947;28;20534;-68
2024/04/05 04:06:14;;;;;;;14.70;4.80;;;10.90;99.90;;;;;;5013279;28;20506;-67
2024/04/05 04:08:42;;;;;;;12.90;3.63;;;10.90;99.90;;;;;;5014939;28;20467;-67
2024/04/05 04:11:08;;;;;;;20.10;4.30;;;10.90;99.90;;;;;;5015745;28;20487;-67
2024/04/05 04:13:35;;;;;;;18.50;4.50;;;10.90;99.90;;;;;;5010488;28;20553;-67
2024/04/05 04:16:03;;;;;;;21.83;5.10;;;10.80;99.90;;;;;;5013133;28;20859;-67
2024/04/05 04:18:30;;;;;;;18.67;4.87;;;10.90;99.90;;;;;;5012280;28;20477;-68
2024/04/05 04:20:56;;;;;;;15.50;4.07;;;10.90;99.90;;;;;;5014855;28;20509;-67
2024/04/05 04:23:23;;;;;;;16.70;5.17;;;10.90;99.90;;;;;;5015627;28;20467;-67
2024/04/05 04:25:51;;;;;;;13.53;4.40;;;10.90;99.90;;;;;;5015882;28;20546;-67
2024/04/05 04:28:18;;;;;;;12.60;4.33;;;10.80;99.90;;;;;;5011594;28;20907;-67
2024/04/05 04:30:45;;;;;;;16.13;4.53;;;10.80;99.90;;;;;;5006877;28;20506;-67
2024/04/05 04:33:15;;;;;;;16.90;4.30;;;10.80;99.90;;;;;;5009146;28;20839;-67
2024/04/05 04:35:43;;;;;;;16.33;4.60;;;10.80;99.90;;;;;;5012334;28;20466;-67
2024/04/05 04:38:10;;;;;;;12.10;4.27;;;10.80;99.90;;;;;;5009942;28;20459;-67
2024/04/05 04:40:37;;;;;;;16.70;3.80;;;10.90;99.90;;;;;;5005494;28;20475;-68
2024/04/05 04:43:05;;;;;;;14.90;4.70;;;10.80;99.90;;;;;;5009649;28;20529;-67
2024/04/05 04:45:31;;;;;;;13.17;4.20;;;10.80;99.90;;;;;;5009143;28;20468;-67
2024/04/05 04:47:58;;;;;;;15.77;4.50;;;10.80;99.90;;;;;;5006902;28;20471;-67
2024/04/05 04:50:27;;;;;;;13.40;4.40;;;10.80;99.90;;;;;;5010754;28;20487;-67
2024/04/05 04:52:53;;;;;;;9.10;4.00;;;10.80;99.90;;;;;;5012424;28;20897;-67
2024/04/05 04:55:20;;;;;;;10.83;4.17;;;10.90;99.90;;;;;;5013463;28;20496;-67
2024/04/05 04:57:46;;;;;;;19.13;4.60;;;10.80;99.90;;;;;;5000646;28;20804;-67
2024/04/05 05:00:16;;;;;;;11.70;3.83;;;10.80;99.90;;;;;;4998641;28;20564;-67
2024/04/05 05:02:43;;;;;;;16.80;4.20;;;10.80;99.90;;;;;;4999618;28;20471;-67
2024/04/05 05:05:11;;;;;;;17.27;4.17;;;10.80;99.90;;;;;;5013268;28;20502;-67
2024/04/05 05:07:39;;;;;;;13.37;3.63;;;10.80;99.90;;;;;;5003857;28;20487;-68
2024/04/05 05:10:09;;;;;;;18.57;5.30;;;10.80;99.90;;;;;;5015497;28;20873;-68
2024/04/05 05:12:36;;;;;;;13.77;3.60;;;10.80;99.90;;;;;;5024448;28;21681;-67
2024/04/05 05:15:03;;;;;;;17.50;4.90;;;10.80;99.90;;;;;;5024990;28;20497;-67
2024/04/05 05:17:29;;;;;;;12.33;4.13;;;10.80;99.90;;;;;;5022095;28;20489;-68
2024/04/05 05:19:57;;;;;;;15.47;5.50;;;10.80;99.90;;;;;;5020857;28;20830;-67
2024/04/05 05:22:23;;;;;;;16.40;5.30;;;10.80;99.90;;;;;;4995453;28;20471;-67
2024/04/05 05:24:52;;;;;;;13.90;4.97;;;10.80;99.90;;;;;;4993145;28;20496;-67
2024/04/05 05:27:18;;;;;;;9.07;3.63;;;10.80;99.90;;;;;;4997474;28;20483;-67
2024/04/05 05:29:45;;;;;;;15.20;4.97;;;10.80;99.90;;;;;;4988889;28;20862;-67
2024/04/05 05:32:11;;;;;;;15.30;4.37;;;10.80;99.90;;;;;;5003012;28;20471;-67
2024/04/05 05:34:39;;;;;;;12.30;4.03;;;10.80;99.90;;;;;;4997017;28;20487;-67
2024/04/05 05:37:05;;;;;;;14.63;4.10;;;10.90;99.90;;;;;;4987905;28;20471;-67
2024/04/05 05:39:33;;;;;;;16.83;4.10;;;10.90;99.90;;;;;;4991137;28;20472;-68
2024/04/05 05:42:01;;;;;;;14.13;4.43;;;10.90;99.90;;;;;;5000079;28;20472;-67
2024/04/05 05:44:28;;;;;;;10.23;3.47;;;10.90;99.90;;;;;;5001622;28;20557;-67
2024/04/05 05:46:54;;;;;;;18.00;4.10;;;10.90;99.90;;;;;;5003953;28;20983;-67
2024/04/05 05:49:21;;;;;;;15.97;4.30;;;10.90;99.90;;;;;;5003182;28;20479;-67
2024/04/05 05:51:47;;;;;;;18.27;6.00;;;10.90;99.90;;;;;;5009777;28;20487;-68
2024/04/05 05:54:14;;;;;;;13.40;3.87;;;10.90;99.90;;;;;;5006651;28;21076;-67
2024/04/05 05:56:40;;;;;;;16.03;5.00;;;10.90;99.90;;;;;;5009174;28;20472;-68
2024/04/05 05:59:08;;;;;;;13.77;4.00;;;11.00;99.90;;;;;;5004847;28;20480;-68
2024/04/05 06:01:35;;;;;;;12.33;4.80;;;11.00;99.90;;;;;;5000844;28;20495;-67
2024/04/05 06:04:03;;;;;;;12.43;3.93;;;11.00;99.90;;;;;;5008924;28;21018;-67
2024/04/05 06:06:29;;;;;;;14.90;4.43;;;11.00;99.90;;;;;;5008698;28;20870;-68
2024/04/05 06:08:56;;;;;;;15.13;3.97;;;11.00;99.90;;;;;;5003076;28;20541;-68
2024/04/05 06:11:22;;;;;;;12.40;4.80;;;11.00;99.90;;;;;;5006455;28;20495;-69
2024/04/05 06:13:49;;;;;;;14.10;4.70;;;11.00;99.90;;;;;;5002112;28;21270;-69
2024/04/05 06:16:18;;;;;;;13.17;4.00;;;11.10;99.90;;;;;;5007650;28;20649;-70
2024/04/05 06:18:45;;;;;;;14.43;5.67;;;11.10;99.90;;;;;;5024500;28;20920;-70
2024/04/05 06:21:12;;;;;;;11.17;4.50;;;11.10;99.90;;;;;;5006987;28;20483;-67
2024/04/05 06:23:39;;;;;;;12.40;4.53;;;11.20;99.90;;;;;;5006600;28;20495;-67
2024/04/05 06:26:05;;;;;;;14.90;4.80;;;11.10;99.90;;;;;;5006863;28;20486;-69
2024/04/05 06:28:32;;;;;;;19.00;4.40;;;11.20;99.90;;;;;;5008657;28;20472;-70
2024/04/05 06:31:00;;;;;;;12.30;4.03;;;11.20;99.90;;;;;;5005931;28;21008;-69
2024/04/05 06:33:29;;;;;;;18.93;4.70;;;11.20;99.90;;;;;;5012281;28;20487;-67
2024/04/05 06:35:59;;;;;;;11.07;4.23;;;11.30;99.90;;;;;;5002540;28;20467;-67
2024/04/05 06:38:26;;;;;;;13.43;5.10;;;11.30;99.90;;;;;;5009584;28;20459;-70
2024/04/05 06:40:56;;;;;;;15.00;4.30;;;11.30;99.90;;;;;;5018221;28;20490;-67
2024/04/05 06:43:23;;;;;;;15.00;4.10;;;11.30;99.90;;;;;;5026263;28;20467;-67
2024/04/05 06:45:53;;;;;;;9.90;3.97;;;11.30;99.90;;;;;;5027337;28;20536;-67
2024/04/05 06:48:20;;;;;;;6.83;3.70;;;11.30;99.90;;;;;;5019907;28;20470;-67
2024/04/05 06:50:48;;;;;;;12.60;4.90;;;11.30;99.90;;;;;;5030402;28;20494;-67
2024/04/05 06:53:15;;;;;;;10.97;3.70;;;11.30;99.90;;;;;;5030289;28;20466;-68
2024/04/05 06:55:45;;;;;;;12.50;4.43;;;11.40;99.90;;;;;;5025302;28;20639;-68
2024/04/05 06:58:13;;;;;;;10.03;4.67;;;11.40;99.90;;;;;;5019936;28;20477;-68
2024/04/05 07:00:39;;;;;;;12.57;4.30;;;11.40;99.90;;;;;;5019450;28;20494;-68
2024/04/05 07:03:06;;;;;;;11.10;4.00;;;11.40;99.90;;;;;;5021815;28;20470;-68
2024/04/05 07:05:33;;;;;;;11.57;4.37;;;11.50;99.90;;;;;;5020358;28;20522;-68
2024/04/05 07:08:01;;;;;;;14.40;4.50;;;11.50;99.90;;;;;;5031755;28;20490;-68
2024/04/05 07:10:28;;;;;;;11.17;4.30;;;11.50;99.90;;;;;;5024571;28;21174;-68
2024/04/05 07:12:56;;;;;;;14.00;4.37;;;11.60;99.90;;;;;;5024193;28;20552;-68
2024/04/05 07:15:22;;;;;;;13.27;5.73;;;11.60;99.90;;;;;;5021290;28;20509;-68
2024/04/05 07:17:51;;;;;;;13.87;4.23;;;11.70;99.90;;;;;;5023138;28;20466;-68
2024/04/05 07:20:17;;;;;;;8.80;4.23;;;11.70;99.90;;;;;;5027148;28;21015;-68
2024/04/05 07:22:44;;;;;;;11.87;4.00;;;11.70;99.90;;;;;;5042832;28;20767;-68
2024/04/05 07:25:13;;;;;;;11.07;4.20;;;11.70;99.90;;;;;;5024411;28;21209;-68
2024/04/05 07:27:39;;;;;;;9.63;4.30;;;11.70;99.90;;;;;;5027218;28;20493;-68
2024/04/05 07:30:08;;;;;;;10.57;4.83;;;11.70;99.90;;;;;;5023401;28;20487;-68
2024/04/05 07:32:35;;;;;;;13.70;4.90;;;11.70;99.90;;;;;;5026730;28;20458;-67
2024/04/05 07:35:02;;;;;;;10.40;4.20;;;11.70;99.90;;;;;;5024737;28;20493;-67
2024/04/05 07:37:29;;;;;;;15.23;5.67;;;11.70;99.90;;;;;;5029056;28;20462;-67
2024/04/05 07:39:56;;;;;;;10.00;4.53;;;11.80;99.90;;;;;;5018504;28;20482;-67
2024/04/05 07:42:24;;;;;;;18.23;6.37;;;11.80;99.90;;;;;;5020904;28;20526;-67
2024/04/05 07:44:54;;;;;;;12.47;6.03;;;11.80;99.90;;;;;;5021129;28;21037;-68
2024/04/05 07:47:21;;;;;;;16.27;5.90;;;11.80;99.90;;;;;;5019967;28;20490;-68
2024/04/05 07:49:52;;;;;;;16.00;4.57;;;11.80;99.90;;;;;;5018521;28;21010;-68
2024/04/05 07:52:20;;;;;;;11.70;5.00;;;11.80;99.90;;;;;;5003209;28;20478;-68
2024/04/05 07:54:47;;;;;;;15.00;5.80;;;11.90;99.90;;;;;;5002228;28;20496;-68
2024/04/05 07:57:13;;;;;;;12.23;5.30;;;11.90;99.90;;;;;;4987692;28;20521;-67
2024/04/05 07:59:42;;;;;;;11.07;5.20;;;12.00;99.90;;;;;;4983939;28;20974;-68
2024/04/05 08:02:09;;;;;;;10.90;4.90;;;11.90;99.90;;;;;;4994130;28;20501;-68
2024/04/05 08:04:36;;;;;;;15.33;5.67;;;12.00;99.90;;;;;;4990681;28;20549;-66
2024/04/05 08:07:03;;;;;;;11.10;5.13;;;12.00;99.90;;;;;;4988539;28;20996;-66
2024/04/05 08:09:30;;;;;;;11.67;4.80;;;12.00;99.90;;;;;;5000694;28;20467;-67
2024/04/05 08:11:56;;;;;;;12.10;4.90;;;12.00;99.90;;;;;;4997925;28;20471;-66
2024/04/05 08:14:24;;;;;;;12.20;5.23;;;12.00;99.90;;;;;;5006697;28;21021;-67
2024/04/05 08:16:51;;;;;;;8.90;4.70;;;12.10;99.90;;;;;;5003950;28;20479;-66
2024/04/05 08:19:18;;;;;;;13.27;4.97;;;12.20;99.90;;;;;;5002811;28;20961;-67
2024/04/05 08:21:44;;;;;;;13.87;4.93;;;12.20;99.90;;;;;;5006585;28;20495;-67
2024/04/05 08:24:11;;;;;;;12.43;5.50;;;12.20;99.90;;;;;;5004994;28;20487;-67
2024/04/05 08:26:37;;;;;;;9.53;3.93;;;12.20;99.90;;;;;;5003491;28;20980;-66
2024/04/05 08:29:04;;;;;;;11.00;4.53;;;12.20;99.90;;;;;;5007545;28;20460;-66
2024/04/05 08:31:31;;;;;;;12.43;4.33;;;12.30;99.90;;;;;;5006045;28;20543;-66
2024/04/05 08:33:59;;;;;;;12.10;4.57;;;12.40;99.90;;;;;;5007640;28;20530;-66
2024/04/05 08:36:25;;;;;;;17.40;5.33;;;12.40;99.90;;;;;;5005951;28;20992;-66
2024/04/05 08:38:55;;;;;;;12.90;5.20;;;12.50;99.90;;;;;;5002043;28;21138;-66
2024/04/05 08:41:29;;;;;;;11.47;4.93;;;12.50;99.90;;;;;;5000194;28;20491;-66
2024/04/05 08:43:59;;;;;;;12.93;5.10;;;12.60;99.90;;;;;;5000744;28;20914;-66
2024/04/05 08:46:25;;;;;;;11.33;4.80;;;12.70;99.90;;;;;;5003214;28;21136;-66
2024/04/05 08:48:55;;;;;;;12.93;5.00;;;12.80;99.90;;;;;;5004768;28;20471;-67
2024/04/05 08:51:23;;;;;;;10.93;5.70;;;12.90;99.90;;;;;;5005878;28;20492;-66
2024/04/05 08:53:50;;;;;;;8.87;4.40;;;13.00;99.90;;;;;;5004966;28;20488;-67
2024/04/05 08:56:17;;;;;;;9.97;4.23;;;13.10;99.90;;;;;;5005053;28;20479;-66
2024/04/05 08:58:44;;;;;;;10.67;4.17;;;13.20;99.90;;;;;;5001805;28;21047;-66
2024/04/05 09:01:10;;;;;;;11.90;4.43;;;13.20;99.90;;;;;;5004696;28;21326;-65
2024/04/05 09:03:37;;;;;;;8.73;3.63;;;13.40;99.90;;;;;;4999046;28;20490;-65
2024/04/05 09:06:04;;;;;;;12.87;4.60;;;13.50;99.90;;;;;;5006082;28;20886;-65
2024/04/05 09:08:43;;;;;;;12.73;4.20;;;13.60;99.90;;;;;;4997835;28;20487;-65
2024/04/05 09:11:09;;;;;;;9.93;4.00;;;13.60;99.90;;;;;;5002412;28;21177;-68
2024/04/05 09:13:36;;;;;;;12.07;4.10;;;13.70;99.90;;;;;;5001720;28;20496;-66
2024/04/05 09:16:02;;;;;;;8.50;4.00;;;13.70;99.90;;;;;;5002431;28;20714;-66
2024/04/05 09:18:29;;;;;;;17.77;5.97;;;13.70;99.90;;;;;;4995810;28;20464;-66
2024/04/05 09:20:55;;;;;;;12.63;4.20;;;13.70;99.90;;;;;;4985894;28;21031;-66
2024/04/05 09:23:22;;;;;;;14.27;4.20;;;13.80;99.90;;;;;;4983908;28;20915;-66
2024/04/05 09:26:02;;;;;;;10.10;3.60;;;13.80;99.90;;;;;;4989797;28;21002;-66
2024/04/05 09:28:30;;;;;;;14.47;4.90;;;13.90;99.90;;;;;;4994470;28;20487;-66
2024/04/05 09:30:57;;;;;;;10.80;3.67;;;14.00;99.90;;;;;;4997225;28;20859;-66
2024/04/05 09:33:24;;;;;;;10.70;3.80;;;14.00;99.90;;;;;;5000522;28;20476;-66
2024/04/05 09:35:53;;;;;;;12.60;4.50;;;14.00;99.90;;;;;;5003709;28;20476;-66
2024/04/05 09:38:21;;;;;;;10.27;3.77;;;14.00;99.90;;;;;;4999462;28;20564;-66
2024/04/05 09:40:48;;;;;;;11.20;4.23;;;14.10;99.90;;;;;;5004495;28;20566;-66
2024/04/05 09:43:18;;;;;;;9.20;3.53;;;14.20;99.90;;;;;;5008083;28;20467;-66
2024/04/05 09:45:47;;;;;;;10.30;4.10;;;14.30;99.90;;;;;;5004367;28;20505;-66
2024/04/05 09:48:14;;;;;;;8.70;3.83;;;14.40;99.90;;;;;;5009652;28;20487;-66
2024/04/05 09:50:40;;;;;;;10.73;3.20;;;14.60;99.90;;;;;;5000165;28;20510;-66
2024/04/05 09:53:08;;;;;;;13.43;4.83;;;14.60;99.90;;;;;;5005054;28;20483;-66
2024/04/05 09:55:38;;;;;;;8.50;3.77;;;14.60;99.90;;;;;;5002949;28;20869;-66
2024/04/05 09:58:06;;;;;;;10.60;3.70;;;14.70;99.90;;;;;;5009635;28;20463;-66
2024/04/05 10:00:37;;;;;;;9.10;4.00;;;14.70;99.90;;;;;;4996503;28;20483;-66
2024/04/05 10:03:06;;;;;;;7.87;3.10;;;14.80;99.90;;;;;;5012328;28;20478;-66
2024/04/05 10:05:33;;;;;;;10.73;3.60;;;15.00;99.90;;;;;;4998914;28;20502;-66
2024/04/05 10:08:10;;;;;;;11.07;4.27;;;15.10;99.90;;;;;;4988648;28;21835;-66
2024/04/05 10:10:36;;;;;;;8.90;3.53;;;15.20;99.90;;;;;;4986562;28;20486;-66
2024/04/05 10:13:14;;;;;;;7.33;3.23;;;15.30;99.90;;;;;;4990485;28;20471;-66
2024/04/05 10:15:54;;;;;;;7.53;3.20;;;15.40;99.90;;;;;;4989920;28;20911;-66
2024/04/05 10:18:25;;;;;;;7.77;4.27;;;15.60;99.90;;;;;;4992483;28;20464;-67
2024/04/05 10:21:02;;;;;;;5.70;3.07;;;15.60;99.90;;;;;;4988479;28;20502;-68
2024/04/05 10:23:30;;;;;;;7.50;3.37;;;15.60;99.90;;;;;;4987931;28;20533;-68
2024/04/05 10:25:56;;;;;;;6.43;3.20;;;15.60;99.90;;;;;;4988195;28;20479;-66
2024/04/05 10:28:23;;;;;;;6.87;2.90;;;15.60;99.90;;;;;;4995737;28;20499;-66
2024/04/05 10:30:53;;;;;;;7.67;3.47;;;15.60;99.90;;;;;;4991834;28;20492;-67
2024/04/05 10:33:21;;;;;;;6.70;3.40;;;15.70;99.90;;;;;;4992829;28;20468;-67
2024/04/05 10:35:48;;;;;;;6.47;3.00;;;15.80;99.90;;;;;;4990640;28;20487;-66
2024/04/05 10:38:17;;;;;;;5.90;3.77;;;15.80;99.90;;;;;;5002052;28;20458;-66
2024/04/05 10:40:43;;;;;;;6.10;3.43;;;15.80;99.90;;;;;;5005016;28;20570;-66
2024/04/05 10:43:12;;;;;;;4.50;2.30;;;15.80;99.90;;;;;;4995983;28;21763;-66
2024/04/05 10:45:39;;;;;;;5.20;2.53;;;15.70;99.90;;;;;;5007783;28;20525;-68
2024/04/05 10:48:10;;;;;;;8.03;2.87;;;15.70;99.90;;;;;;5008840;28;20988;-67
2024/04/05 10:50:37;;;;;;;5.70;2.93;;;15.80;99.90;;;;;;5007860;28;20498;-67
2024/04/05 10:53:05;;;;;;;5.07;2.67;;;15.80;99.90;;;;;;5012019;28;20463;-67
2024/04/05 10:55:31;;;;;;;6.23;2.90;;;15.80;99.90;;;;;;5005187;28;20487;-67
2024/04/05 10:58:03;;;;;;;5.37;2.67;;;15.90;99.90;;;;;;5009694;28;20469;-67
2024/04/05 11:00:32;;;;;;;4.27;2.70;;;15.80;99.90;;;;;;5001231;28;21027;-67
2024/04/05 11:02:59;;;;;;;7.57;3.07;;;15.80;99.90;;;;;;5005758;28;20486;-67
2024/04/05 11:05:27;;;;;;;5.50;3.07;;;15.80;99.90;;;;;;5010550;28;20496;-67
2024/04/05 11:08:02;;;;;;;5.63;2.77;;;15.80;99.90;;;;;;5003868;28;20968;-67
2024/04/05 11:10:30;;;;;;;5.70;3.90;;;15.70;99.90;;;;;;5006694;28;20502;-67
2024/04/05 11:12:58;;;;;;;5.53;3.83;;;15.70;99.90;;;;;;5010391;28;20485;-67
2024/04/05 11:15:25;;;;;;;6.73;3.60;;;15.70;99.90;;;;;;5002793;28;20521;-67
2024/04/05 11:17:59;;;;;;;7.87;3.00;;;15.70;99.90;;;;;;5010084;28;20848;-67
2024/04/05 11:20:29;;;;;;;6.90;3.27;;;15.80;99.90;;;;;;5010948;28;20548;-67
2024/04/05 11:22:57;;;;;;;6.77;3.97;;;15.80;99.90;;;;;;5007784;28;20521;-67
2024/04/05 11:25:23;;;;;;;6.10;3.17;;;15.80;99.90;;;;;;5006944;28;20852;-68
2024/04/05 11:27:50;;;;;;;5.27;3.20;;;15.80;99.90;;;;;;5005023;28;20503;-67
2024/04/05 11:30:17;;;;;;;5.63;3.50;;;15.90;99.90;;;;;;4988052;28;21005;-67
2024/04/05 11:32:44;;;;;;;7.30;4.20;;;15.90;99.90;;;;;;4987751;28;20835;-66
2024/04/05 11:35:14;;;;;;;5.83;3.70;;;15.90;99.90;;;;;;4987655;28;20487;-69
2024/04/05 11:37:43;;;;;;;4.20;3.80;;;15.90;99.90;;;;;;4988236;28;20473;-67
2024/04/05 11:40:12;;;;;;;5.30;3.47;;;15.90;99.90;;;;;;4998284;28;20486;-68
2024/04/05 11:42:39;;;;;;;4.63;3.80;;;15.90;99.90;;;;;;5008517;28;20482;-69
2024/04/05 11:45:07;;;;;;;6.00;3.40;;;15.90;99.90;;;;;;5015307;28;21037;-68
2024/04/05 11:47:34;;;;;;;5.40;3.63;;;15.90;99.90;;;;;;5018873;28;20486;-68
2024/04/05 11:50:02;;;;;;;5.83;3.47;;;15.90;99.90;;;;;;5013391;28;20762;-67
2024/04/05 11:52:28;;;;;;;6.73;3.43;;;15.90;99.90;;;;;;5016544;28;20477;-68
2024/04/05 11:54:57;;;;;;;6.40;3.60;;;15.80;99.90;;;;;;5003174;28;20493;-69
2024/04/05 11:57:23;;;;;;;6.67;3.60;;;15.80;99.90;;;;;;5020621;28;20462;-66
2024/04/05 11:59:50;;;;;;;7.07;3.90;;;15.80;99.90;;;;;;5024957;28;20505;-68
2024/04/05 12:02:16;;;;;;;6.93;3.63;;;15.80;99.90;;;;;;5026376;28;20993;-68
2024/04/05 12:04:43;;;;;;;4.60;3.73;;;15.70;99.90;;;;;;5019038;28;20493;-67
2024/04/05 12:07:12;;;;;;;5.77;3.47;;;15.70;99.90;;;;;;5025253;28;21000;-68
2024/04/05 12:09:39;;;;;;;5.93;3.70;;;15.60;99.90;;;;;;5024878;28;21086;-67
2024/04/05 12:12:08;;;;;;;4.90;3.37;;;15.60;99.90;;;;;;5027861;28;20474;-70
2024/04/05 12:14:35;;;;;;;6.03;3.63;;;15.60;99.90;;;;;;5018758;28;20494;-70
2024/04/05 12:17:02;;;;;;;9.37;3.77;;;15.50;99.90;;;;;;5030874;28;21292;-70
2024/04/05 12:19:29;;;;;;;6.47;4.10;;;15.50;99.90;;;;;;5018513;28;20474;-69
2024/04/05 12:21:55;;;;;;;4.50;3.00;;;15.50;99.90;;;;;;5031567;28;20913;-68
2024/04/05 12:24:22;;;;;;;8.00;3.57;;;15.50;99.90;;;;;;5020714;28;20866;-67
2024/04/05 12:26:55;;;;;;;5.57;3.33;;;15.50;99.90;;;;;;5030660;28;20525;-67
2024/04/05 12:29:23;;;;;;;7.87;3.70;;;15.40;99.90;;;;;;5019055;28;21496;-68
2024/04/05 12:31:50;;;;;;;4.17;3.20;;;15.40;99.90;;;;;;5019524;28;20891;-67
2024/04/05 12:34:18;;;;;;;7.37;3.73;;;15.30;99.90;;;;;;5018059;28;20525;-68
2024/04/05 12:36:44;;;;;;;7.07;3.63;;;15.30;99.90;;;;;;5016314;28;20478;-66
2024/04/05 12:39:24;;;;;;;6.10;3.63;;;15.30;99.90;;;;;;5012498;28;21019;-67
2024/04/05 12:41:51;;;;;;;7.60;3.87;;;15.30;99.90;;;;;;5017879;28;20481;-66